sensor_id;sensor_type;location;lat;lon;timestamp;P1;durP1;ratioP1;P2;durP2;ratioP2
62588;SDS011;58504;48.770;9.148;2023-02-21T00:00:01;2.35;;;0.80;;
62588;SDS011;58504;48.770;9.148;2023-02-21T00:02:46;1.70;;;1.15;;
62588;SDS011;58504;48.770;9.148;2023-02-21T00:05:31;3.80;;;1.05;;
62588;SDS011;58504;48.770;9.148;2023-02-21T00:08:15;2.33;;;0.80;;
62588;SDS011;58504;48.770;9.148;2023-02-21T00:10:59;0.98;;;0.70;;
62588;SDS011;58504;48.770;9.148;2023-02-21T00:13:44;2.55;;;1.23;;
62588;SDS011;58504;48.770;9.148;2023-02-21T00:16:28;1.65;;;0.82;;
62588;SDS011;58504;48.770;9.148;2023-02-21T00:19:12;1.25;;;0.85;;
62588;SDS011;58504;48.770;9.148;2023-02-21T00:21:58;2.20;;;0.93;;
62588;SDS011;58504;48.770;9.148;2023-02-21T00:24:42;3.63;;;0.73;;
62588;SDS011;58504;48.770;9.148;2023-02-21T00:27:26;1.23;;;1.13;;
62588;SDS011;58504;48.770;9.148;2023-02-21T00:30:10;2.63;;;1.05;;
62588;SDS011;58504;48.770;9.148;2023-02-21T00:32:55;2.38;;;1.10;;
62588;SDS011;58504;48.770;9.148;2023-02-21T00:35:39;1.85;;;1.13;;
62588;SDS011;58504;48.770;9.148;2023-02-21T00:38:24;2.03;;;1.15;;
62588;SDS011;58504;48.770;9.148;2023-02-21T00:41:09;0.70;;;0.70;;
62588;SDS011;58504;48.770;9.148;2023-02-21T00:43:53;1.10;;;0.90;;
62588;SDS011;58504;48.770;9.148;2023-02-21T00:46:37;1.20;;;0.70;;
62588;SDS011;58504;48.770;9.148;2023-02-21T00:49:21;3.15;;;1.20;;
62588;SDS011;58504;48.770;9.148;2023-02-21T00:52:05;0.80;;;0.70;;
62588;SDS011;58504;48.770;9.148;2023-02-21T00:54:51;1.05;;;0.88;;
62588;SDS011;58504;48.770;9.148;2023-02-21T00:57:35;1.20;;;1.10;;
62588;SDS011;58504;48.770;9.148;2023-02-21T01:00:20;2.55;;;1.00;;
62588;SDS011;58504;48.770;9.148;2023-02-21T01:03:06;1.60;;;0.88;;
62588;SDS011;58504;48.770;9.148;2023-02-21T01:05:52;1.15;;;0.90;;
62588;SDS011;58504;48.770;9.148;2023-02-21T01:08:39;0.98;;;0.90;;
62588;SDS011;58504;48.770;9.148;2023-02-21T01:11:25;1.75;;;0.90;;
62588;SDS011;58504;48.770;9.148;2023-02-21T01:14:09;2.50;;;1.63;;
62588;SDS011;58504;48.770;9.148;2023-02-21T01:16:54;2.17;;;1.10;;
62588;SDS011;58504;48.770;9.148;2023-02-21T01:19:38;0.80;;;0.80;;
62588;SDS011;58504;48.770;9.148;2023-02-21T01:22:22;1.63;;;1.02;;
62588;SDS011;58504;48.770;9.148;2023-02-21T01:25:07;1.35;;;0.75;;
62588;SDS011;58504;48.770;9.148;2023-02-21T01:27:53;1.35;;;1.00;;
62588;SDS011;58504;48.770;9.148;2023-02-21T01:30:37;0.95;;;0.90;;
62588;SDS011;58504;48.770;9.148;2023-02-21T01:33:21;0.98;;;0.85;;
62588;SDS011;58504;48.770;9.148;2023-02-21T01:36:06;1.10;;;0.65;;
62588;SDS011;58504;48.770;9.148;2023-02-21T01:38:50;0.75;;;0.75;;
62588;SDS011;58504;48.770;9.148;2023-02-21T01:41:35;1.85;;;0.85;;
62588;SDS011;58504;48.770;9.148;2023-02-21T01:44:28;0.68;;;0.68;;
62588;SDS011;58504;48.770;9.148;2023-02-21T01:47:15;0.93;;;0.70;;
62588;SDS011;58504;48.770;9.148;2023-02-21T01:50:01;0.80;;;0.80;;
62588;SDS011;58504;48.770;9.148;2023-02-21T01:52:48;2.25;;;1.17;;
62588;SDS011;58504;48.770;9.148;2023-02-21T01:55:32;0.50;;;0.50;;
62588;SDS011;58504;48.770;9.148;2023-02-21T01:58:18;1.10;;;0.90;;
62588;SDS011;58504;48.770;9.148;2023-02-21T02:01:07;2.55;;;0.90;;
62588;SDS011;58504;48.770;9.148;2023-02-21T02:03:55;3.25;;;1.05;;
62588;SDS011;58504;48.770;9.148;2023-02-21T02:06:41;0.73;;;0.73;;
62588;SDS011;58504;48.770;9.148;2023-02-21T02:09:25;1.00;;;0.90;;
62588;SDS011;58504;48.770;9.148;2023-02-21T02:12:13;1.42;;;1.00;;
62588;SDS011;58504;48.770;9.148;2023-02-21T02:18:03;1.27;;;1.00;;
62588;SDS011;58504;48.770;9.148;2023-02-21T02:23:50;2.05;;;0.90;;
62588;SDS011;58504;48.770;9.148;2023-02-21T02:29:42;0.77;;;0.77;;
62588;SDS011;58504;48.770;9.148;2023-02-21T02:32:30;1.05;;;0.85;;
62588;SDS011;58504;48.770;9.148;2023-02-21T02:35:10;0.90;;;0.90;;
62588;SDS011;58504;48.770;9.148;2023-02-21T02:37:44;0.93;;;0.82;;
62588;SDS011;58504;48.770;9.148;2023-02-21T02:40:18;0.70;;;0.70;;
62588;SDS011;58504;48.770;9.148;2023-02-21T02:42:54;1.25;;;0.82;;
62588;SDS011;58504;48.770;9.148;2023-02-21T02:45:29;0.47;;;0.47;;
62588;SDS011;58504;48.770;9.148;2023-02-21T02:48:02;0.75;;;0.75;;
62588;SDS011;58504;48.770;9.148;2023-02-21T02:50:36;0.73;;;0.73;;
62588;SDS011;58504;48.770;9.148;2023-02-21T02:53:05;0.95;;;0.70;;
62588;SDS011;58504;48.770;9.148;2023-02-21T02:55:36;1.15;;;0.80;;
62588;SDS011;58504;48.770;9.148;2023-02-21T02:58:07;0.90;;;0.68;;
62588;SDS011;58504;48.770;9.148;2023-02-21T03:00:38;0.77;;;0.77;;
62588;SDS011;58504;48.770;9.148;2023-02-21T03:06:14;0.70;;;0.70;;
62588;SDS011;58504;48.770;9.148;2023-02-21T03:08:50;0.80;;;0.80;;
62588;SDS011;58504;48.770;9.148;2023-02-21T03:11:23;1.60;;;0.77;;
62588;SDS011;58504;48.770;9.148;2023-02-21T03:13:52;0.98;;;0.98;;
62588;SDS011;58504;48.770;9.148;2023-02-21T03:18:53;0.70;;;0.68;;
62588;SDS011;58504;48.770;9.148;2023-02-21T03:21:25;0.82;;;0.82;;
62588;SDS011;58504;48.770;9.148;2023-02-21T03:23:56;0.80;;;0.70;;
62588;SDS011;58504;48.770;9.148;2023-02-21T03:26:25;0.65;;;0.65;;
62588;SDS011;58504;48.770;9.148;2023-02-21T03:28:54;0.80;;;0.80;;
62588;SDS011;58504;48.770;9.148;2023-02-21T03:31:23;0.80;;;0.80;;
62588;SDS011;58504;48.770;9.148;2023-02-21T03:33:53;0.50;;;0.50;;
62588;SDS011;58504;48.770;9.148;2023-02-21T03:36:20;0.40;;;0.40;;
62588;SDS011;58504;48.770;9.148;2023-02-21T03:38:48;1.58;;;1.33;;
62588;SDS011;58504;48.770;9.148;2023-02-21T03:41:15;0.85;;;0.63;;
62588;SDS011;58504;48.770;9.148;2023-02-21T03:43:42;0.73;;;0.70;;
62588;SDS011;58504;48.770;9.148;2023-02-21T03:46:09;0.80;;;0.80;;
62588;SDS011;58504;48.770;9.148;2023-02-21T03:48:35;0.60;;;0.60;;
62588;SDS011;58504;48.770;9.148;2023-02-21T03:51:02;0.88;;;0.88;;
62588;SDS011;58504;48.770;9.148;2023-02-21T03:53:29;1.17;;;1.02;;
62588;SDS011;58504;48.770;9.148;2023-02-21T03:55:57;0.60;;;0.60;;
62588;SDS011;58504;48.770;9.148;2023-02-21T03:58:24;1.52;;;0.80;;
62588;SDS011;58504;48.770;9.148;2023-02-21T04:00:51;0.80;;;0.80;;
62588;SDS011;58504;48.770;9.148;2023-02-21T04:03:17;0.70;;;0.70;;
62588;SDS011;58504;48.770;9.148;2023-02-21T04:05:44;0.63;;;0.63;;
62588;SDS011;58504;48.770;9.148;2023-02-21T04:08:12;0.75;;;0.75;;
62588;SDS011;58504;48.770;9.148;2023-02-21T04:10:39;0.70;;;0.70;;
62588;SDS011;58504;48.770;9.148;2023-02-21T04:13:07;0.75;;;0.75;;
62588;SDS011;58504;48.770;9.148;2023-02-21T04:15:34;0.80;;;0.80;;
62588;SDS011;58504;48.770;9.148;2023-02-21T04:18:01;0.80;;;0.80;;
62588;SDS011;58504;48.770;9.148;2023-02-21T04:20:28;1.05;;;0.90;;
62588;SDS011;58504;48.770;9.148;2023-02-21T04:22:54;0.60;;;0.60;;
62588;SDS011;58504;48.770;9.148;2023-02-21T04:25:21;0.35;;;0.35;;
62588;SDS011;58504;48.770;9.148;2023-02-21T04:27:48;0.68;;;0.68;;
62588;SDS011;58504;48.770;9.148;2023-02-21T04:30:16;0.93;;;0.93;;
62588;SDS011;58504;48.770;9.148;2023-02-21T04:32:43;1.17;;;1.00;;
62588;SDS011;58504;48.770;9.148;2023-02-21T04:35:10;0.85;;;0.85;;
62588;SDS011;58504;48.770;9.148;2023-02-21T04:37:37;0.80;;;0.80;;
62588;SDS011;58504;48.770;9.148;2023-02-21T04:40:04;1.17;;;0.70;;
62588;SDS011;58504;48.770;9.148;2023-02-21T04:42:32;0.80;;;0.80;;
62588;SDS011;58504;48.770;9.148;2023-02-21T04:44:59;0.70;;;0.70;;
62588;SDS011;58504;48.770;9.148;2023-02-21T04:47:27;0.80;;;0.80;;
62588;SDS011;58504;48.770;9.148;2023-02-21T04:49:54;0.60;;;0.60;;
62588;SDS011;58504;48.770;9.148;2023-02-21T04:52:20;0.70;;;0.70;;
62588;SDS011;58504;48.770;9.148;2023-02-21T04:54:47;0.60;;;0.60;;
62588;SDS011;58504;48.770;9.148;2023-02-21T04:57:14;0.82;;;0.80;;
62588;SDS011;58504;48.770;9.148;2023-02-21T04:59:41;0.60;;;0.60;;
62588;SDS011;58504;48.770;9.148;2023-02-21T05:02:08;1.15;;;0.60;;
62588;SDS011;58504;48.770;9.148;2023-02-21T05:04:36;0.63;;;0.63;;
62588;SDS011;58504;48.770;9.148;2023-02-21T05:07:03;0.80;;;0.65;;
62588;SDS011;58504;48.770;9.148;2023-02-21T05:09:31;0.80;;;0.80;;
62588;SDS011;58504;48.770;9.148;2023-02-21T05:11:57;0.73;;;0.73;;
62588;SDS011;58504;48.770;9.148;2023-02-21T05:14:24;0.50;;;0.50;;
62588;SDS011;58504;48.770;9.148;2023-02-21T05:16:51;0.63;;;0.63;;
62588;SDS011;58504;48.770;9.148;2023-02-21T05:19:18;1.23;;;0.75;;
62588;SDS011;58504;48.770;9.148;2023-02-21T05:21:52;1.60;;;0.80;;
62588;SDS011;58504;48.770;9.148;2023-02-21T05:24:21;0.82;;;0.82;;
62588;SDS011;58504;48.770;9.148;2023-02-21T05:26:48;0.40;;;0.40;;
62588;SDS011;58504;48.770;9.148;2023-02-21T05:29:14;0.80;;;0.80;;
62588;SDS011;58504;48.770;9.148;2023-02-21T05:31:41;0.57;;;0.57;;
62588;SDS011;58504;48.770;9.148;2023-02-21T05:34:08;0.77;;;0.77;;
62588;SDS011;58504;48.770;9.148;2023-02-21T05:36:35;0.65;;;0.65;;
62588;SDS011;58504;48.770;9.148;2023-02-21T05:39:04;0.77;;;0.77;;
62588;SDS011;58504;48.770;9.148;2023-02-21T05:41:31;0.60;;;0.60;;
62588;SDS011;58504;48.770;9.148;2023-02-21T05:44:00;0.80;;;0.80;;
62588;SDS011;58504;48.770;9.148;2023-02-21T05:46:28;0.50;;;0.50;;
62588;SDS011;58504;48.770;9.148;2023-02-21T05:48:56;2.00;;;0.80;;
62588;SDS011;58504;48.770;9.148;2023-02-21T05:51:24;0.85;;;0.65;;
62588;SDS011;58504;48.770;9.148;2023-02-21T05:53:51;0.73;;;0.60;;
62588;SDS011;58504;48.770;9.148;2023-02-21T05:56:20;0.77;;;0.77;;
62588;SDS011;58504;48.770;9.148;2023-02-21T05:58:47;0.80;;;0.80;;
62588;SDS011;58504;48.770;9.148;2023-02-21T06:01:14;0.82;;;0.82;;
62588;SDS011;58504;48.770;9.148;2023-02-21T06:03:41;0.80;;;0.80;;
62588;SDS011;58504;48.770;9.148;2023-02-21T06:06:08;0.55;;;0.55;;
62588;SDS011;58504;48.770;9.148;2023-02-21T06:08:40;0.85;;;0.85;;
62588;SDS011;58504;48.770;9.148;2023-02-21T06:11:08;0.70;;;0.70;;
62588;SDS011;58504;48.770;9.148;2023-02-21T06:13:36;0.80;;;0.80;;
62588;SDS011;58504;48.770;9.148;2023-02-21T06:16:03;0.80;;;0.80;;
62588;SDS011;58504;48.770;9.148;2023-02-21T06:18:31;0.65;;;0.63;;
62588;SDS011;58504;48.770;9.148;2023-02-21T06:20:58;0.75;;;0.50;;
62588;SDS011;58504;48.770;9.148;2023-02-21T06:23:24;0.60;;;0.60;;
62588;SDS011;58504;48.770;9.148;2023-02-21T06:25:51;0.65;;;0.65;;
62588;SDS011;58504;48.770;9.148;2023-02-21T06:28:18;0.77;;;0.77;;
62588;SDS011;58504;48.770;9.148;2023-02-21T06:30:46;1.02;;;0.65;;
62588;SDS011;58504;48.770;9.148;2023-02-21T06:33:13;0.85;;;0.82;;
62588;SDS011;58504;48.770;9.148;2023-02-21T06:35:40;1.08;;;0.98;;
62588;SDS011;58504;48.770;9.148;2023-02-21T06:38:06;0.77;;;0.77;;
62588;SDS011;58504;48.770;9.148;2023-02-21T06:40:33;1.30;;;0.90;;
62588;SDS011;58504;48.770;9.148;2023-02-21T06:43:00;1.65;;;0.63;;
62588;SDS011;58504;48.770;9.148;2023-02-21T06:45:27;0.70;;;0.70;;
62588;SDS011;58504;48.770;9.148;2023-02-21T06:47:55;2.28;;;0.65;;
62588;SDS011;58504;48.770;9.148;2023-02-21T06:50:21;0.70;;;0.70;;
62588;SDS011;58504;48.770;9.148;2023-02-21T06:52:48;1.20;;;0.70;;
62588;SDS011;58504;48.770;9.148;2023-02-21T06:55:18;0.60;;;0.60;;
62588;SDS011;58504;48.770;9.148;2023-02-21T06:57:45;1.38;;;1.10;;
62588;SDS011;58504;48.770;9.148;2023-02-21T07:00:13;0.63;;;0.63;;
62588;SDS011;58504;48.770;9.148;2023-02-21T07:02:40;0.73;;;0.73;;
62588;SDS011;58504;48.770;9.148;2023-02-21T07:05:09;0.70;;;0.70;;
62588;SDS011;58504;48.770;9.148;2023-02-21T07:07:36;0.50;;;0.50;;
62588;SDS011;58504;48.770;9.148;2023-02-21T07:10:03;0.80;;;0.80;;
62588;SDS011;58504;48.770;9.148;2023-02-21T07:12:30;0.90;;;0.90;;
62588;SDS011;58504;48.770;9.148;2023-02-21T07:14:57;0.70;;;0.70;;
62588;SDS011;58504;48.770;9.148;2023-02-21T07:17:24;0.60;;;0.60;;
62588;SDS011;58504;48.770;9.148;2023-02-21T07:19:50;1.10;;;1.00;;
62588;SDS011;58504;48.770;9.148;2023-02-21T07:22:18;1.00;;;0.77;;
62588;SDS011;58504;48.770;9.148;2023-02-21T07:24:50;1.02;;;1.00;;
62588;SDS011;58504;48.770;9.148;2023-02-21T07:27:17;0.90;;;0.90;;
62588;SDS011;58504;48.770;9.148;2023-02-21T07:29:45;0.75;;;0.75;;
62588;SDS011;58504;48.770;9.148;2023-02-21T07:32:12;2.38;;;1.02;;
62588;SDS011;58504;48.770;9.148;2023-02-21T07:34:38;1.00;;;0.82;;
62588;SDS011;58504;48.770;9.148;2023-02-21T07:37:05;2.78;;;1.33;;
62588;SDS011;58504;48.770;9.148;2023-02-21T07:39:33;1.42;;;0.73;;
62588;SDS011;58504;48.770;9.148;2023-02-21T07:42:00;4.72;;;1.60;;
62588;SDS011;58504;48.770;9.148;2023-02-21T07:44:27;2.75;;;1.30;;
62588;SDS011;58504;48.770;9.148;2023-02-21T07:46:54;5.95;;;1.42;;
62588;SDS011;58504;48.770;9.148;2023-02-21T07:49:20;1.20;;;1.02;;
62588;SDS011;58504;48.770;9.148;2023-02-21T07:51:47;4.40;;;1.30;;
62588;SDS011;58504;48.770;9.148;2023-02-21T07:54:14;2.03;;;1.20;;
62588;SDS011;58504;48.770;9.148;2023-02-21T07:56:43;4.05;;;1.33;;
62588;SDS011;58504;48.770;9.148;2023-02-21T07:59:11;1.20;;;1.10;;
62588;SDS011;58504;48.770;9.148;2023-02-21T08:01:37;1.23;;;1.15;;
62588;SDS011;58504;48.770;9.148;2023-02-21T08:04:04;1.30;;;1.13;;
62588;SDS011;58504;48.770;9.148;2023-02-21T08:06:32;2.03;;;1.20;;
62588;SDS011;58504;48.770;9.148;2023-02-21T08:09:00;1.13;;;1.02;;
62588;SDS011;58504;48.770;9.148;2023-02-21T08:11:26;3.22;;;1.30;;
62588;SDS011;58504;48.770;9.148;2023-02-21T08:13:54;5.75;;;1.77;;
62588;SDS011;58504;48.770;9.148;2023-02-21T08:16:21;1.25;;;1.20;;
62588;SDS011;58504;48.770;9.148;2023-02-21T08:18:49;2.22;;;1.42;;
62588;SDS011;58504;48.770;9.148;2023-02-21T08:21:16;2.85;;;1.25;;
62588;SDS011;58504;48.770;9.148;2023-02-21T08:23:42;2.83;;;1.90;;
62588;SDS011;58504;48.770;9.148;2023-02-21T08:26:10;1.88;;;1.17;;
62588;SDS011;58504;48.770;9.148;2023-02-21T08:28:36;2.17;;;1.55;;
62588;SDS011;58504;48.770;9.148;2023-02-21T08:31:05;1.30;;;1.20;;
62588;SDS011;58504;48.770;9.148;2023-02-21T08:33:32;4.15;;;1.65;;
62588;SDS011;58504;48.770;9.148;2023-02-21T08:35:59;1.55;;;1.33;;
62588;SDS011;58504;48.770;9.148;2023-02-21T08:38:25;1.40;;;1.30;;
62588;SDS011;58504;48.770;9.148;2023-02-21T08:40:52;3.28;;;1.27;;
62588;SDS011;58504;48.770;9.148;2023-02-21T08:43:19;1.60;;;1.50;;
62588;SDS011;58504;48.770;9.148;2023-02-21T08:45:46;2.38;;;1.15;;
62588;SDS011;58504;48.770;9.148;2023-02-21T08:48:14;1.23;;;1.10;;
62588;SDS011;58504;48.770;9.148;2023-02-21T08:50:40;3.13;;;1.00;;
62588;SDS011;58504;48.770;9.148;2023-02-21T08:53:08;2.15;;;1.30;;
62588;SDS011;58504;48.770;9.148;2023-02-21T08:55:36;2.47;;;1.38;;
62588;SDS011;58504;48.770;9.148;2023-02-21T08:58:03;1.77;;;1.20;;
62588;SDS011;58504;48.770;9.148;2023-02-21T09:00:30;2.72;;;1.15;;
62588;SDS011;58504;48.770;9.148;2023-02-21T09:02:57;1.77;;;1.17;;
62588;SDS011;58504;48.770;9.148;2023-02-21T09:05:26;1.40;;;1.30;;
62588;SDS011;58504;48.770;9.148;2023-02-21T09:07:55;2.28;;;1.27;;
62588;SDS011;58504;48.770;9.148;2023-02-21T09:10:24;2.38;;;1.50;;
62588;SDS011;58504;48.770;9.148;2023-02-21T09:12:51;1.88;;;1.15;;
62588;SDS011;58504;48.770;9.148;2023-02-21T09:15:19;1.70;;;1.30;;
62588;SDS011;58504;48.770;9.148;2023-02-21T09:17:46;4.13;;;1.08;;
62588;SDS011;58504;48.770;9.148;2023-02-21T09:20:15;4.10;;;1.48;;
62588;SDS011;58504;48.770;9.148;2023-02-21T09:22:45;2.08;;;1.20;;
62588;SDS011;58504;48.770;9.148;2023-02-21T09:25:14;2.13;;;1.10;;
62588;SDS011;58504;48.770;9.148;2023-02-21T09:27:41;7.20;;;1.50;;
62588;SDS011;58504;48.770;9.148;2023-02-21T09:30:09;2.92;;;1.70;;
62588;SDS011;58504;48.770;9.148;2023-02-21T09:32:38;2.67;;;0.95;;
62588;SDS011;58504;48.770;9.148;2023-02-21T09:35:06;3.33;;;1.25;;
62588;SDS011;58504;48.770;9.148;2023-02-21T09:37:35;3.42;;;1.42;;
62588;SDS011;58504;48.770;9.148;2023-02-21T09:40:05;1.70;;;1.40;;
62588;SDS011;58504;48.770;9.148;2023-02-21T09:42:37;1.40;;;1.25;;
62588;SDS011;58504;48.770;9.148;2023-02-21T09:45:05;3.15;;;1.08;;
62588;SDS011;58504;48.770;9.148;2023-02-21T09:47:35;7.65;;;1.50;;
62588;SDS011;58504;48.770;9.148;2023-02-21T09:50:05;1.85;;;0.95;;
62588;SDS011;58504;48.770;9.148;2023-02-21T09:52:37;0.95;;;0.90;;
62588;SDS011;58504;48.770;9.148;2023-02-21T09:55:07;6.75;;;1.23;;
62588;SDS011;58504;48.770;9.148;2023-02-21T09:57:39;3.22;;;1.23;;
62588;SDS011;58504;48.770;9.148;2023-02-21T10:00:14;1.48;;;1.02;;
62588;SDS011;58504;48.770;9.148;2023-02-21T10:02:45;3.38;;;1.50;;
62588;SDS011;58504;48.770;9.148;2023-02-21T10:05:20;3.15;;;1.63;;
62588;SDS011;58504;48.770;9.148;2023-02-21T10:07:57;1.35;;;1.25;;
62588;SDS011;58504;48.770;9.148;2023-02-21T10:10:33;3.58;;;1.33;;
62588;SDS011;58504;48.770;9.148;2023-02-21T10:13:06;1.40;;;1.30;;
62588;SDS011;58504;48.770;9.148;2023-02-21T10:15:43;3.08;;;1.23;;
62588;SDS011;58504;48.770;9.148;2023-02-21T10:18:19;2.60;;;1.95;;
62588;SDS011;58504;48.770;9.148;2023-02-21T10:20:53;1.40;;;1.30;;
62588;SDS011;58504;48.770;9.148;2023-02-21T10:23:24;1.38;;;1.25;;
62588;SDS011;58504;48.770;9.148;2023-02-21T10:28:26;2.70;;;1.15;;
62588;SDS011;58504;48.770;9.148;2023-02-21T10:30:54;1.30;;;1.20;;
62588;SDS011;58504;48.770;9.148;2023-02-21T10:33:25;1.05;;;1.02;;
62588;SDS011;58504;48.770;9.148;2023-02-21T10:35:52;1.52;;;1.15;;
62588;SDS011;58504;48.770;9.148;2023-02-21T10:38:22;2.70;;;1.25;;
62588;SDS011;58504;48.770;9.148;2023-02-21T10:40:52;1.00;;;1.00;;
62588;SDS011;58504;48.770;9.148;2023-02-21T10:43:25;1.90;;;1.13;;
62588;SDS011;58504;48.770;9.148;2023-02-21T10:45:58;1.00;;;1.00;;
62588;SDS011;58504;48.770;9.148;2023-02-21T10:48:29;1.48;;;1.38;;
62588;SDS011;58504;48.770;9.148;2023-02-21T10:53:31;1.83;;;1.23;;
62588;SDS011;58504;48.770;9.148;2023-02-21T10:58:52;0.70;;;0.70;;
62588;SDS011;58504;48.770;9.148;2023-02-21T11:01:22;4.88;;;1.45;;
62588;SDS011;58504;48.770;9.148;2023-02-21T11:03:58;1.63;;;0.85;;
62588;SDS011;58504;48.770;9.148;2023-02-21T11:06:30;6.35;;;1.38;;
62588;SDS011;58504;48.770;9.148;2023-02-21T11:09:00;3.10;;;1.27;;
62588;SDS011;58504;48.770;9.148;2023-02-21T11:11:31;2.42;;;1.20;;
62588;SDS011;58504;48.770;9.148;2023-02-21T11:16:43;7.05;;;1.20;;
62588;SDS011;58504;48.770;9.148;2023-02-21T11:19:12;3.58;;;1.52;;
62588;SDS011;58504;48.770;9.148;2023-02-21T11:21:39;1.85;;;1.17;;
62588;SDS011;58504;48.770;9.148;2023-02-21T11:24:09;4.53;;;1.42;;
62588;SDS011;58504;48.770;9.148;2023-02-21T11:26:37;2.05;;;1.30;;
62588;SDS011;58504;48.770;9.148;2023-02-21T11:29:13;0.75;;;0.75;;
62588;SDS011;58504;48.770;9.148;2023-02-21T11:31:42;1.08;;;1.02;;
62588;SDS011;58504;48.770;9.148;2023-02-21T11:34:11;2.95;;;1.27;;
62588;SDS011;58504;48.770;9.148;2023-02-21T11:36:40;1.15;;;1.05;;
62588;SDS011;58504;48.770;9.148;2023-02-21T11:39:13;2.70;;;1.20;;
62588;SDS011;58504;48.770;9.148;2023-02-21T11:41:44;1.15;;;0.95;;
62588;SDS011;58504;48.770;9.148;2023-02-21T11:44:24;1.42;;;1.30;;
62588;SDS011;58504;48.770;9.148;2023-02-21T11:46:54;1.80;;;1.30;;
62588;SDS011;58504;48.770;9.148;2023-02-21T11:49:32;1.50;;;1.40;;
62588;SDS011;58504;48.770;9.148;2023-02-21T11:52:05;1.60;;;1.45;;
62588;SDS011;58504;48.770;9.148;2023-02-21T11:54:35;1.77;;;1.10;;
62588;SDS011;58504;48.770;9.148;2023-02-21T11:57:05;1.38;;;1.27;;
62588;SDS011;58504;48.770;9.148;2023-02-21T12:02:15;1.15;;;1.10;;
62588;SDS011;58504;48.770;9.148;2023-02-21T12:04:54;3.08;;;1.17;;
62588;SDS011;58504;48.770;9.148;2023-02-21T12:07:30;1.33;;;0.88;;
62588;SDS011;58504;48.770;9.148;2023-02-21T12:10:08;1.70;;;1.05;;
62588;SDS011;58504;48.770;9.148;2023-02-21T12:12:51;1.30;;;1.20;;
62588;SDS011;58504;48.770;9.148;2023-02-21T12:15:27;1.40;;;0.98;;
62588;SDS011;58504;48.770;9.148;2023-02-21T12:18:14;6.93;;;1.10;;
62588;SDS011;58504;48.770;9.148;2023-02-21T12:23:33;3.33;;;1.25;;
62588;SDS011;58504;48.770;9.148;2023-02-21T12:26:17;6.88;;;1.45;;
62588;SDS011;58504;48.770;9.148;2023-02-21T12:28:57;6.30;;;1.52;;
62588;SDS011;58504;48.770;9.148;2023-02-21T12:31:35;2.35;;;1.00;;
62588;SDS011;58504;48.770;9.148;2023-02-21T12:34:14;4.28;;;1.40;;
62588;SDS011;58504;48.770;9.148;2023-02-21T12:36:54;1.17;;;0.88;;
62588;SDS011;58504;48.770;9.148;2023-02-21T12:39:30;5.65;;;1.42;;
62588;SDS011;58504;48.770;9.148;2023-02-21T12:42:24;1.33;;;1.20;;
62588;SDS011;58504;48.770;9.148;2023-02-21T12:45:06;3.03;;;1.20;;
62588;SDS011;58504;48.770;9.148;2023-02-21T12:47:48;3.42;;;1.52;;
62588;SDS011;58504;48.770;9.148;2023-02-21T12:50:21;1.88;;;1.58;;
62588;SDS011;58504;48.770;9.148;2023-02-21T12:52:52;1.77;;;1.00;;
62588;SDS011;58504;48.770;9.148;2023-02-21T12:55:29;1.73;;;1.20;;
62588;SDS011;58504;48.770;9.148;2023-02-21T12:57:59;10.02;;;1.73;;
62588;SDS011;58504;48.770;9.148;2023-02-21T13:00:32;4.00;;;1.48;;
62588;SDS011;58504;48.770;9.148;2023-02-21T13:03:07;1.25;;;1.20;;
62588;SDS011;58504;48.770;9.148;2023-02-21T13:05:55;6.10;;;2.33;;
62588;SDS011;58504;48.770;9.148;2023-02-21T13:10:55;2.75;;;1.80;;
62588;SDS011;58504;48.770;9.148;2023-02-21T13:13:27;1.23;;;1.13;;
62588;SDS011;58504;48.770;9.148;2023-02-21T13:15:57;2.17;;;1.50;;
62588;SDS011;58504;48.770;9.148;2023-02-21T13:18:28;3.75;;;1.45;;
62588;SDS011;58504;48.770;9.148;2023-02-21T13:20:59;2.17;;;1.80;;
62588;SDS011;58504;48.770;9.148;2023-02-21T13:23:40;1.92;;;1.70;;
62588;SDS011;58504;48.770;9.148;2023-02-21T13:29:23;3.33;;;1.60;;
62588;SDS011;58504;48.770;9.148;2023-02-21T13:31:55;2.67;;;2.28;;
62588;SDS011;58504;48.770;9.148;2023-02-21T13:34:27;5.95;;;1.92;;
62588;SDS011;58504;48.770;9.148;2023-02-21T13:36:59;2.28;;;1.45;;
62588;SDS011;58504;48.770;9.148;2023-02-21T13:39:28;3.03;;;1.70;;
62588;SDS011;58504;48.770;9.148;2023-02-21T13:42:02;2.08;;;1.58;;
62588;SDS011;58504;48.770;9.148;2023-02-21T13:44:32;2.08;;;1.48;;
62588;SDS011;58504;48.770;9.148;2023-02-21T13:47:06;1.83;;;1.30;;
62588;SDS011;58504;48.770;9.148;2023-02-21T13:49:42;3.67;;;1.52;;
62588;SDS011;58504;48.770;9.148;2023-02-21T13:55:25;2.35;;;1.33;;
62588;SDS011;58504;48.770;9.148;2023-02-21T13:58:22;3.20;;;1.95;;
62588;SDS011;58504;48.770;9.148;2023-02-21T14:00:56;5.00;;;1.60;;
62588;SDS011;58504;48.770;9.148;2023-02-21T14:03:46;1.45;;;1.35;;
62588;SDS011;58504;48.770;9.148;2023-02-21T14:06:34;1.48;;;1.27;;
62588;SDS011;58504;48.770;9.148;2023-02-21T14:09:03;1.67;;;1.58;;
62588;SDS011;58504;48.770;9.148;2023-02-21T14:11:36;3.30;;;1.60;;
62588;SDS011;58504;48.770;9.148;2023-02-21T14:14:06;1.63;;;1.40;;
62588;SDS011;58504;48.770;9.148;2023-02-21T14:16:46;3.28;;;1.33;;
62588;SDS011;58504;48.770;9.148;2023-02-21T14:19:18;1.77;;;1.67;;
62588;SDS011;58504;48.770;9.148;2023-02-21T14:21:50;3.03;;;1.50;;
62588;SDS011;58504;48.770;9.148;2023-02-21T14:24:27;1.40;;;1.30;;
62588;SDS011;58504;48.770;9.148;2023-02-21T14:26:56;2.17;;;1.48;;
62588;SDS011;58504;48.770;9.148;2023-02-21T14:29:33;4.57;;;1.75;;
62588;SDS011;58504;48.770;9.148;2023-02-21T14:32:14;2.42;;;1.52;;
62588;SDS011;58504;48.770;9.148;2023-02-21T14:34:51;4.30;;;1.48;;
62588;SDS011;58504;48.770;9.148;2023-02-21T14:37:23;3.03;;;1.30;;
62588;SDS011;58504;48.770;9.148;2023-02-21T14:39:57;1.77;;;1.20;;
62588;SDS011;58504;48.770;9.148;2023-02-21T14:42:29;3.70;;;1.23;;
62588;SDS011;58504;48.770;9.148;2023-02-21T14:45:29;3.65;;;1.42;;
62588;SDS011;58504;48.770;9.148;2023-02-21T14:51:07;1.88;;;1.42;;
62588;SDS011;58504;48.770;9.148;2023-02-21T14:54:02;1.20;;;1.10;;
62588;SDS011;58504;48.770;9.148;2023-02-21T14:57:05;3.17;;;1.20;;
62588;SDS011;58504;48.770;9.148;2023-02-21T14:59:54;3.85;;;1.70;;
62588;SDS011;58504;48.770;9.148;2023-02-21T15:02:38;4.82;;;1.73;;
62588;SDS011;58504;48.770;9.148;2023-02-21T15:05:13;1.60;;;1.50;;
62588;SDS011;58504;48.770;9.148;2023-02-21T15:07:47;1.30;;;1.30;;
62588;SDS011;58504;48.770;9.148;2023-02-21T15:10:26;5.63;;;2.40;;
62588;SDS011;58504;48.770;9.148;2023-02-21T15:12:54;8.02;;;2.28;;
62588;SDS011;58504;48.770;9.148;2023-02-21T15:15:23;3.33;;;2.58;;
62588;SDS011;58504;48.770;9.148;2023-02-21T15:17:55;7.90;;;2.50;;
62588;SDS011;58504;48.770;9.148;2023-02-21T15:20:26;2.97;;;2.20;;
62588;SDS011;58504;48.770;9.148;2023-02-21T15:22:55;5.47;;;2.40;;
62588;SDS011;58504;48.770;9.148;2023-02-21T15:25:24;2.53;;;2.03;;
62588;SDS011;58504;48.770;9.148;2023-02-21T15:27:55;6.95;;;2.13;;
62588;SDS011;58504;48.770;9.148;2023-02-21T15:30:25;6.05;;;2.00;;
62588;SDS011;58504;48.770;9.148;2023-02-21T15:32:55;2.13;;;1.92;;
62588;SDS011;58504;48.770;9.148;2023-02-21T15:35:24;2.95;;;1.73;;
62588;SDS011;58504;48.770;9.148;2023-02-21T15:37:55;6.32;;;2.65;;
62588;SDS011;58504;48.770;9.148;2023-02-21T15:40:25;3.45;;;2.60;;
62588;SDS011;58504;48.770;9.148;2023-02-21T15:42:53;2.28;;;1.92;;
62588;SDS011;58504;48.770;9.148;2023-02-21T15:45:21;2.58;;;2.00;;
62588;SDS011;58504;48.770;9.148;2023-02-21T15:47:50;4.85;;;1.77;;
62588;SDS011;58504;48.770;9.148;2023-02-21T15:50:22;3.55;;;2.00;;
62588;SDS011;58504;48.770;9.148;2023-02-21T15:52:54;2.13;;;1.98;;
62588;SDS011;58504;48.770;9.148;2023-02-21T15:55:29;3.00;;;1.73;;
62588;SDS011;58504;48.770;9.148;2023-02-21T15:57:57;3.38;;;1.67;;
62588;SDS011;58504;48.770;9.148;2023-02-21T16:00:26;2.45;;;1.83;;
62588;SDS011;58504;48.770;9.148;2023-02-21T16:05:55;1.92;;;1.83;;